createdAt,value
2023-02-14T00:01:31.562Z,83.69
2023-02-14T00:04:37.511Z,82.41
2023-02-14T00:07:52.813Z,81.96
2023-02-14T00:10:57.873Z,82.40
2023-02-14T00:14:22.841Z,82.77
2023-02-14T00:17:43.834Z,82.98
2023-02-14T00:20:49.723Z,82.82
2023-02-14T00:23:55.533Z,82.51
2023-02-14T00:27:01.986Z,82.78
2023-02-14T00:30:10.006Z,83.29
2023-02-14T00:33:16.736Z,82.12
2023-02-14T00:36:24.200Z,83.05
2023-02-14T00:39:23.209Z,83.14
2023-02-14T00:42:29.480Z,81.76
2023-02-14T00:45:35.889Z,81.17
2023-02-14T00:48:41.601Z,81.06
2023-02-14T00:51:48.517Z,81.46
2023-02-14T00:54:54.745Z,81.32
2023-02-14T00:58:01.064Z,81.20
2023-02-14T01:01:07.238Z,82.15
2023-02-14T01:04:14.249Z,81.40
2023-02-14T01:07:20.329Z,81.31
2023-02-14T01:10:26.991Z,80.58
2023-02-14T01:13:32.383Z,81.80
2023-02-14T01:16:39.215Z,82.32
2023-02-14T01:19:47.547Z,81.27
2023-02-14T01:22:56.136Z,80.79
2023-02-14T01:26:01.260Z,80.53
2023-02-14T01:29:07.160Z,80.00
2023-02-14T01:32:13.153Z,79.94
2023-02-14T01:35:19.676Z,80.41
2023-02-14T01:38:26.488Z,80.20
2023-02-14T01:41:32.182Z,80.98
2023-02-14T01:44:54.845Z,81.60
2023-02-14T01:48:06.729Z,81.74
2023-02-14T01:51:12.439Z,80.79
2023-02-14T01:54:19.526Z,81.07
2023-02-14T01:57:19.015Z,81.47
2023-02-14T02:00:42.773Z,80.97
2023-02-14T02:03:53.471Z,81.81
2023-02-14T02:07:05.410Z,82.46
2023-02-14T02:10:14.696Z,82.38
2023-02-14T02:13:22.569Z,82.65
2023-02-14T02:16:42.579Z,83.15
2023-02-14T02:19:57.508Z,82.14
2023-02-14T02:23:36.600Z,81.83
2023-02-14T02:27:12.245Z,82.16
2023-02-14T02:30:59.252Z,82.98
2023-02-14T02:34:45.962Z,83.45
2023-02-14T02:38:10.832Z,82.11
2023-02-14T02:41:30.709Z,82.57
2023-02-14T02:44:57.367Z,81.55
2023-02-14T02:48:23.665Z,82.27
2023-02-14T02:52:05.962Z,82.05
2023-02-14T02:55:14.469Z,82.13
2023-02-14T02:58:21.087Z,81.11
2023-02-14T03:01:31.053Z,81.92
2023-02-14T03:04:54.763Z,81.72
2023-02-14T03:08:00.356Z,82.50
2023-02-14T03:11:07.508Z,81.83
2023-02-14T03:14:33.399Z,82.06
2023-02-14T03:17:57.061Z,81.58
2023-02-14T03:21:11.935Z,80.34
2023-02-14T03:24:36.743Z,79.46
2023-02-14T03:27:48.848Z,80.08
2023-02-14T03:31:05.798Z,81.32
2023-02-14T03:34:45.775Z,80.56
2023-02-14T03:37:59.414Z,80.83
2023-02-14T03:41:18.369Z,79.66
2023-02-14T03:44:25.256Z,79.72
2023-02-14T03:47:35.425Z,80.41
2023-02-14T03:50:41.456Z,79.83
2023-02-14T03:53:50.164Z,80.02
2023-02-14T03:57:31.449Z,80.45
2023-02-14T04:00:36.806Z,81.33
2023-02-14T04:03:42.653Z,82.76
2023-02-14T04:06:47.682Z,82.98
2023-02-14T04:09:53.536Z,83.90
2023-02-14T04:13:00.001Z,83.23
2023-02-14T04:16:06.568Z,83.12
2023-02-14T04:19:31.380Z,83.62
2023-02-14T04:22:37.249Z,84.35
2023-02-14T04:25:42.898Z,84.60
2023-02-14T04:28:50.034Z,84.35
2023-02-14T04:31:56.110Z,84.57
2023-02-14T04:35:02.763Z,84.34
2023-02-14T04:38:08.932Z,85.17
2023-02-14T04:41:14.800Z,84.68
2023-02-14T04:44:20.053Z,84.03
2023-02-14T04:47:24.844Z,84.19
2023-02-14T04:50:32.388Z,84.57
2023-02-14T04:53:37.238Z,84.81
2023-02-14T04:56:43.308Z,85.44
2023-02-14T04:59:48.655Z,85.17
2023-02-14T05:02:54.357Z,84.61
2023-02-14T05:05:59.782Z,86.58
2023-02-14T05:09:05.086Z,84.80
2023-02-14T05:12:11.218Z,85.26
2023-02-14T05:15:16.518Z,85.03
2023-02-14T05:18:22.457Z,84.97
2023-02-14T05:21:27.469Z,85.25
2023-02-14T05:24:33.117Z,85.39
2023-02-14T05:27:38.887Z,86.48
2023-02-14T05:30:44.864Z,86.36
2023-02-14T05:33:49.243Z,85.88
2023-02-14T05:36:56.023Z,85.73
2023-02-14T05:40:01.536Z,86.94
2023-02-14T05:43:03.577Z,85.84
2023-02-14T05:46:09.183Z,86.12
2023-02-14T05:49:15.151Z,84.87
2023-02-14T05:52:21.224Z,85.43
2023-02-14T05:55:25.572Z,85.42
2023-02-14T05:58:32.391Z,86.18
2023-02-14T06:01:38.317Z,86.79
2023-02-14T06:04:43.837Z,86.17
2023-02-14T06:07:52.635Z,86.58
2023-02-14T06:10:58.855Z,86.21
2023-02-14T06:14:04.596Z,84.58
2023-02-14T06:17:10.693Z,85.47
2023-02-14T06:20:18.329Z,85.00
2023-02-14T06:23:24.636Z,84.88
2023-02-14T06:26:32.755Z,85.20
2023-02-14T06:29:38.234Z,84.81
2023-02-14T06:32:43.925Z,85.42
2023-02-14T06:35:49.646Z,85.52
2023-02-14T06:38:48.328Z,86.24
2023-02-14T06:41:40.929Z,85.64
2023-02-14T06:44:45.794Z,85.77
2023-02-14T06:47:51.000Z,86.14
2023-02-14T06:50:50.571Z,85.49
2023-02-14T06:53:55.842Z,86.25
2023-02-14T06:57:00.777Z,86.39
2023-02-14T07:00:05.628Z,86.09
2023-02-14T07:03:11.847Z,87.68
2023-02-14T07:06:17.344Z,86.91
2023-02-14T07:09:24.466Z,87.30
2023-02-14T07:12:30.371Z,87.59
2023-02-14T07:15:35.842Z,86.31
2023-02-14T07:18:40.957Z,87.44
2023-02-14T07:21:38.712Z,85.84
2023-02-14T07:24:43.840Z,85.71
2023-02-14T07:27:50.776Z,85.26
2023-02-14T07:30:57.213Z,84.74
2023-02-14T07:34:02.229Z,84.61
2023-02-14T07:37:08.661Z,85.04
2023-02-14T07:40:15.275Z,84.62
2023-02-14T07:43:20.689Z,86.12
2023-02-14T07:46:26.786Z,85.80
2023-02-14T07:49:32.066Z,85.71
2023-02-14T07:52:36.965Z,85.73
2023-02-14T07:55:43.484Z,85.72
2023-02-14T07:58:49.111Z,85.71
2023-02-14T08:01:56.606Z,85.61
2023-02-14T08:05:02.260Z,85.31
2023-02-14T08:08:07.603Z,85.58
2023-02-14T08:11:12.794Z,86.43
2023-02-14T08:14:18.237Z,86.12
2023-02-14T08:17:23.403Z,86.76
2023-02-14T08:20:29.254Z,86.43
2023-02-14T08:23:34.870Z,85.67
2023-02-14T08:26:41.094Z,86.39
2023-02-14T08:29:47.437Z,86.26
2023-02-14T08:32:53.901Z,85.65
2023-02-14T08:36:01.305Z,85.60
2023-02-14T08:39:07.033Z,85.78
2023-02-14T08:42:11.695Z,86.17
2023-02-14T08:45:17.976Z,86.28
2023-02-14T08:48:25.782Z,87.75
2023-02-14T08:51:30.358Z,86.81
2023-02-14T08:54:36.867Z,86.48
2023-02-14T08:57:43.016Z,86.25
2023-02-14T09:00:48.442Z,86.15
2023-02-14T09:03:54.424Z,86.17
2023-02-14T09:06:54.900Z,86.37
2023-02-14T09:09:47.248Z,86.51
2023-02-14T09:12:57.279Z,86.70
2023-02-14T09:16:03.890Z,88.18
2023-02-14T09:19:10.808Z,88.04
2023-02-14T09:22:16.239Z,86.78
2023-02-14T09:25:23.078Z,86.54
2023-02-14T09:28:29.094Z,86.07
2023-02-14T09:31:38.003Z,85.43
2023-02-14T09:34:44.205Z,85.20
2023-02-14T09:38:01.651Z,85.25
2023-02-14T09:40:47.228Z,85.62
2023-02-14T09:43:59.203Z,85.64
2023-02-14T09:46:59.455Z,85.27
2023-02-14T09:50:05.778Z,84.86
2023-02-14T09:53:16.089Z,84.37
2023-02-14T09:57:00.305Z,84.34
2023-02-14T10:00:19.115Z,84.16
2023-02-14T10:03:58.632Z,83.87
2023-02-14T10:07:31.921Z,84.50
2023-02-14T10:10:46.668Z,84.63
2023-02-14T10:14:02.497Z,83.99
2023-02-14T10:17:12.528Z,83.68
2023-02-14T10:20:22.486Z,83.05
2023-02-14T10:23:47.534Z,82.92
2023-02-14T10:26:54.333Z,82.85
2023-02-14T10:30:00.471Z,83.68
2023-02-14T10:33:22.909Z,82.30
2023-02-14T10:36:42.428Z,81.73
2023-02-14T10:40:41.402Z,81.57
2023-02-14T10:44:14.947Z,80.79
2023-02-14T10:47:46.907Z,80.56
2023-02-14T10:51:09.583Z,80.68
2023-02-14T10:54:24.939Z,81.48
2023-02-14T10:57:34.329Z,82.14
2023-02-14T11:00:44.915Z,82.08
2023-02-14T11:03:52.550Z,79.66
2023-02-14T11:06:59.945Z,78.66
2023-02-14T11:10:06.643Z,77.53
2023-02-14T11:13:14.475Z,76.74
2023-02-14T11:16:24.964Z,76.00
2023-02-14T11:19:47.726Z,75.99
2023-02-14T11:22:54.006Z,74.53
2023-02-14T11:26:03.215Z,74.85
2023-02-14T11:29:15.312Z,74.37
2023-02-14T11:32:24.307Z,75.02
2023-02-14T11:35:36.433Z,75.47
2023-02-14T11:38:50.953Z,76.88
2023-02-14T11:42:05.656Z,76.26
2023-02-14T11:45:12.165Z,77.22
2023-02-14T11:48:39.654Z,76.33
2023-02-14T11:51:55.407Z,74.62
2023-02-14T11:55:02.678Z,75.54
2023-02-14T11:58:08.374Z,74.57
2023-02-14T12:01:14.682Z,73.59
2023-02-14T12:04:45.732Z,74.31
2023-02-14T12:07:53.122Z,74.14
2023-02-14T12:10:59.320Z,73.18
2023-02-14T12:14:13.998Z,72.28
2023-02-14T12:17:27.862Z,73.08
2023-02-14T12:20:55.478Z,71.63
2023-02-14T12:24:29.726Z,71.36
2023-02-14T12:28:10.781Z,70.53
2023-02-14T12:31:17.489Z,70.55
2023-02-14T12:34:19.271Z,71.67
2023-02-14T12:37:59.281Z,72.96
2023-02-14T12:41:16.917Z,72.64
2023-02-14T12:44:35.862Z,72.62
2023-02-14T12:48:05.403Z,72.75
2023-02-14T12:51:41.884Z,74.08
2023-02-14T12:55:27.776Z,75.37
2023-02-14T12:59:07.019Z,75.92
2023-02-14T13:02:22.413Z,76.70
2023-02-14T13:06:09.877Z,76.85
2023-02-14T13:09:27.782Z,76.63
2023-02-14T13:12:45.838Z,76.32
2023-02-14T13:16:08.930Z,77.76
2023-02-14T13:19:33.619Z,79.32
2023-02-14T13:22:40.786Z,80.37
2023-02-14T13:25:53.770Z,81.06
2023-02-14T13:29:09.483Z,81.29
2023-02-14T13:32:17.318Z,81.53
2023-02-14T13:35:16.952Z,81.72
2023-02-14T13:38:18.819Z,80.19
2023-02-14T13:41:17.726Z,80.78
2023-02-14T13:44:24.228Z,80.31
2023-02-14T13:47:39.191Z,80.93
2023-02-14T13:50:44.236Z,81.33
2023-02-14T13:54:00.355Z,81.63
2023-02-14T13:57:05.470Z,82.01
2023-02-14T14:00:29.096Z,82.67
2023-02-14T14:03:48.684Z,83.28
2023-02-14T14:07:22.909Z,82.83
2023-02-14T14:10:28.711Z,83.69
2023-02-14T14:13:57.867Z,83.58
2023-02-14T14:17:12.977Z,83.85
2023-02-14T14:20:36.648Z,83.94
2023-02-14T14:23:45.817Z,82.89
2023-02-14T14:26:57.406Z,83.36
2023-02-14T14:30:14.181Z,82.69
2023-02-14T14:33:37.686Z,82.62
2023-02-14T14:36:44.507Z,82.46
2023-02-14T14:39:50.482Z,82.19
2023-02-14T14:42:56.735Z,81.67
2023-02-14T14:45:56.895Z,81.77
2023-02-14T14:49:08.606Z,81.74
2023-02-14T14:52:14.359Z,81.73
2023-02-14T14:55:21.850Z,81.64
2023-02-14T14:58:48.953Z,81.28
2023-02-14T15:01:54.194Z,81.16
2023-02-14T15:04:59.274Z,82.19
2023-02-14T15:08:05.163Z,83.66
2023-02-14T15:11:50.046Z,83.13
2023-02-14T15:14:59.970Z,82.89
2023-02-14T15:18:06.099Z,83.47
2023-02-14T15:21:12.298Z,83.42
2023-02-14T15:24:11.329Z,83.02
2023-02-14T15:26:57.379Z,82.85
2023-02-14T15:30:02.875Z,82.26
2023-02-14T15:33:03.254Z,82.99
2023-02-14T15:36:09.865Z,83.96
2023-02-14T15:39:18.869Z,85.09
2023-02-14T15:42:56.264Z,85.24
2023-02-14T15:46:04.171Z,84.24
2023-02-14T15:49:09.738Z,84.61
2023-02-14T15:52:16.961Z,84.22
2023-02-14T15:55:18.060Z,84.82
2023-02-14T15:58:32.221Z,85.42
2023-02-14T16:01:38.554Z,86.34
2023-02-14T16:04:48.821Z,86.71
2023-02-14T16:07:54.421Z,85.07
2023-02-14T16:11:01.258Z,85.64
2023-02-14T16:14:07.916Z,85.43
2023-02-14T16:17:25.941Z,85.41
2023-02-14T16:20:51.525Z,85.65
2023-02-14T16:23:57.936Z,85.30
2023-02-14T16:27:05.080Z,85.28
2023-02-14T16:30:10.764Z,86.09
2023-02-14T16:33:15.485Z,86.08
2023-02-14T16:36:37.735Z,85.85
2023-02-14T16:39:43.450Z,85.94
2023-02-14T16:42:48.976Z,84.45
2023-02-14T16:45:53.648Z,84.71
2023-02-14T16:49:00.329Z,85.11
2023-02-14T16:52:06.607Z,84.92
2023-02-14T16:55:12.105Z,84.92
2023-02-14T16:58:18.175Z,84.81
2023-02-14T17:01:24.822Z,84.64
2023-02-14T17:04:31.583Z,84.60
2023-02-14T17:07:37.732Z,84.47
2023-02-14T17:10:51.418Z,84.91
2023-02-14T17:13:58.047Z,85.37
2023-02-14T17:17:03.843Z,86.09
2023-02-14T17:20:09.199Z,85.74
2023-02-14T17:23:15.436Z,86.25
2023-02-14T17:26:21.445Z,86.26
2023-02-14T17:29:26.992Z,86.77
2023-02-14T17:32:32.308Z,86.47
2023-02-14T17:35:38.371Z,85.93
2023-02-14T17:38:44.599Z,85.95
2023-02-14T17:41:51.175Z,85.65
2023-02-14T17:44:57.165Z,86.83
2023-02-14T17:48:02.762Z,86.31
2023-02-14T17:51:08.433Z,86.10
2023-02-14T17:54:14.510Z,86.05
2023-02-14T17:57:20.313Z,85.97
2023-02-14T18:00:27.734Z,85.84
2023-02-14T18:03:33.092Z,85.64
2023-02-14T18:06:39.102Z,85.75
2023-02-14T18:09:45.837Z,85.21
2023-02-14T18:12:51.548Z,85.12
2023-02-14T18:15:57.524Z,84.44
2023-02-14T18:19:03.547Z,84.08
2023-02-14T18:22:09.583Z,84.31
2023-02-14T18:25:15.477Z,84.45
2023-02-14T18:28:22.156Z,84.49
2023-02-14T18:31:30.120Z,83.92
2023-02-14T18:34:34.852Z,84.68
2023-02-14T18:37:39.985Z,84.30
2023-02-14T18:40:45.569Z,84.23
2023-02-14T18:43:52.507Z,84.42
2023-02-14T18:46:59.166Z,84.14
2023-02-14T18:50:05.880Z,83.96
2023-02-14T18:53:12.878Z,83.58
2023-02-14T18:56:24.454Z,83.00
2023-02-14T18:59:28.035Z,83.03
2023-02-14T19:02:33.574Z,84.00
2023-02-14T19:05:39.870Z,84.30
2023-02-14T19:08:50.768Z,84.25
2023-02-14T19:11:56.244Z,84.19
2023-02-14T19:15:03.237Z,82.65
2023-02-14T19:18:08.659Z,82.86
2023-02-14T19:21:30.526Z,83.55
2023-02-14T19:24:37.512Z,83.11
2023-02-14T19:27:44.414Z,81.90
2023-02-14T19:30:54.214Z,80.46
2023-02-14T19:34:00.558Z,80.28
2023-02-14T19:37:07.561Z,80.09
2023-02-14T19:40:13.814Z,79.65
2023-02-14T19:43:20.003Z,80.88
2023-02-14T19:46:27.565Z,81.09
2023-02-14T19:49:36.252Z,81.65
2023-02-14T19:52:41.976Z,81.45
2023-02-14T19:55:47.988Z,80.90
2023-02-14T19:58:55.266Z,81.71
2023-02-14T20:02:07.328Z,81.38
2023-02-14T20:05:13.288Z,80.43
2023-02-14T20:08:20.647Z,80.08
2023-02-14T20:11:50.275Z,81.85
2023-02-14T20:14:57.862Z,82.00
2023-02-14T20:17:57.475Z,82.56
2023-02-14T20:21:08.899Z,81.95
2023-02-14T20:24:17.054Z,81.35
2023-02-14T20:27:23.807Z,81.00
2023-02-14T20:30:30.150Z,81.96
2023-02-14T20:33:36.357Z,83.13
2023-02-14T20:36:42.826Z,81.86
2023-02-14T20:39:49.415Z,81.72
2023-02-14T20:42:56.109Z,82.43
2023-02-14T20:46:02.862Z,81.39
2023-02-14T20:49:10.587Z,81.27
2023-02-14T20:52:16.346Z,83.02
2023-02-14T20:55:21.611Z,82.81
2023-02-14T20:58:27.505Z,83.24
2023-02-14T21:01:34.886Z,83.73
2023-02-14T21:04:40.585Z,83.93
2023-02-14T21:07:40.912Z,83.79
2023-02-14T21:10:27.840Z,84.08
2023-02-14T21:13:21.104Z,82.99
2023-02-14T21:16:20.864Z,83.59
2023-02-14T21:19:13.702Z,83.75
2023-02-14T21:22:08.053Z,83.95
2023-02-14T21:25:14.823Z,83.27
2023-02-14T21:28:20.299Z,83.53
2023-02-14T21:31:29.035Z,83.33
2023-02-14T21:34:34.183Z,83.09
2023-02-14T21:37:39.278Z,83.06
2023-02-14T21:40:45.425Z,83.12
2023-02-14T21:43:54.388Z,83.18
2023-02-14T21:46:59.545Z,83.44
2023-02-14T21:50:22.908Z,82.36
2023-02-14T21:53:29.563Z,82.39
2023-02-14T21:56:34.765Z,82.66
2023-02-14T21:59:40.073Z,82.03
2023-02-14T22:02:46.833Z,81.28
2023-02-14T22:05:52.140Z,81.29
2023-02-14T22:08:57.325Z,81.18
2023-02-14T22:12:03.526Z,81.66
2023-02-14T22:15:09.748Z,82.27
2023-02-14T22:18:16.371Z,82.25
2023-02-14T22:21:27.107Z,82.20
2023-02-14T22:24:33.622Z,82.75
2023-02-14T22:27:32.792Z,82.53
2023-02-14T22:30:33.488Z,83.04
2023-02-14T22:33:39.066Z,82.89
2023-02-14T22:36:44.491Z,81.84
2023-02-14T22:39:49.381Z,82.09
2023-02-14T22:42:55.870Z,82.41
2023-02-14T22:46:02.173Z,82.45
2023-02-14T22:49:09.092Z,81.93
2023-02-14T22:52:08.616Z,81.85
2023-02-14T22:55:15.081Z,81.40
2023-02-14T22:58:21.060Z,81.19
2023-02-14T23:01:31.982Z,81.19
2023-02-14T23:04:37.849Z,81.87
2023-02-14T23:07:43.463Z,81.82
2023-02-14T23:10:48.582Z,80.30
2023-02-14T23:14:12.333Z,79.84
2023-02-14T23:17:35.660Z,79.95
2023-02-14T23:20:59.564Z,80.08
2023-02-14T23:24:05.583Z,80.06
2023-02-14T23:27:10.761Z,80.22
2023-02-14T23:30:16.701Z,80.32
2023-02-14T23:33:22.383Z,80.35
2023-02-14T23:36:28.260Z,80.22
2023-02-14T23:39:33.430Z,80.15
2023-02-14T23:42:39.193Z,80.53
2023-02-14T23:45:45.858Z,80.15
2023-02-14T23:48:53.308Z,79.60
2023-02-14T23:51:59.517Z,80.04
2023-02-14T23:55:05.192Z,79.54
2023-02-14T23:58:10.751Z,79.70
